sensor_id;sensor_type;location;lat;lon;timestamp;P1;durP1;ratioP1;P2;durP2;ratioP2
63555;SDS011;49700;48.072;7.800;2023-08-06T00:01:36;2.50;;;1.50;;
63555;SDS011;49700;48.072;7.800;2023-08-06T00:04:01;2.27;;;2.03;;
63555;SDS011;49700;48.072;7.800;2023-08-06T00:06:27;2.23;;;1.70;;
63555;SDS011;49700;48.072;7.800;2023-08-06T00:08:52;3.20;;;1.80;;
63555;SDS011;49700;48.072;7.800;2023-08-06T00:11:18;3.30;;;1.80;;
63555;SDS011;49700;48.072;7.800;2023-08-06T00:13:43;2.73;;;1.47;;
63555;SDS011;49700;48.072;7.800;2023-08-06T00:16:12;2.10;;;1.90;;
63555;SDS011;49700;48.072;7.800;2023-08-06T00:18:38;1.47;;;1.30;;
63555;SDS011;49700;48.072;7.800;2023-08-06T00:21:04;1.63;;;1.53;;
63555;SDS011;49700;48.072;7.800;2023-08-06T00:23:29;2.37;;;1.87;;
63555;SDS011;49700;48.072;7.800;2023-08-06T00:25:55;3.30;;;1.90;;
63555;SDS011;49700;48.072;7.800;2023-08-06T00:28:20;2.27;;;1.60;;
63555;SDS011;49700;48.072;7.800;2023-08-06T00:30:46;1.80;;;1.33;;
63555;SDS011;49700;48.072;7.800;2023-08-06T00:33:17;3.20;;;2.30;;
63555;SDS011;49700;48.072;7.800;2023-08-06T00:35:42;3.10;;;2.10;;
63555;SDS011;49700;48.072;7.800;2023-08-06T00:38:07;4.43;;;2.60;;
63555;SDS011;49700;48.072;7.800;2023-08-06T00:40:33;2.80;;;1.73;;
63555;SDS011;49700;48.072;7.800;2023-08-06T00:42:58;2.30;;;1.83;;
63555;SDS011;49700;48.072;7.800;2023-08-06T00:45:24;2.73;;;1.60;;
63555;SDS011;49700;48.072;7.800;2023-08-06T00:47:50;3.97;;;1.87;;
63555;SDS011;49700;48.072;7.800;2023-08-06T00:50:16;3.43;;;1.87;;
63555;SDS011;49700;48.072;7.800;2023-08-06T00:52:42;5.20;;;1.97;;
63555;SDS011;49700;48.072;7.800;2023-08-06T00:55:08;1.50;;;1.40;;
63555;SDS011;49700;48.072;7.800;2023-08-06T00:57:35;1.63;;;1.50;;
63555;SDS011;49700;48.072;7.800;2023-08-06T01:00:00;3.70;;;1.93;;
63555;SDS011;49700;48.072;7.800;2023-08-06T01:02:26;2.53;;;1.90;;
63555;SDS011;49700;48.072;7.800;2023-08-06T01:04:51;3.07;;;1.30;;
63555;SDS011;49700;48.072;7.800;2023-08-06T01:13:06;2.57;;;1.30;;
63555;SDS011;49700;48.072;7.800;2023-08-06T01:15:46;2.93;;;2.00;;
63555;SDS011;49700;48.072;7.800;2023-08-06T01:18:14;1.30;;;1.20;;
63555;SDS011;49700;48.072;7.800;2023-08-06T01:20:40;1.63;;;1.10;;
63555;SDS011;49700;48.072;7.800;2023-08-06T01:23:05;2.20;;;1.20;;
63555;SDS011;49700;48.072;7.800;2023-08-06T01:25:40;2.13;;;1.93;;
63555;SDS011;49700;48.072;7.800;2023-08-06T01:28:27;2.17;;;1.57;;
63555;SDS011;49700;48.072;7.800;2023-08-06T01:31:07;1.50;;;1.27;;
63555;SDS011;49700;48.072;7.800;2023-08-06T01:33:39;2.03;;;1.20;;
63555;SDS011;49700;48.072;7.800;2023-08-06T01:36:09;2.70;;;1.80;;
63555;SDS011;49700;48.072;7.800;2023-08-06T01:38:35;2.50;;;1.60;;
63555;SDS011;49700;48.072;7.800;2023-08-06T01:41:00;5.03;;;1.70;;
63555;SDS011;49700;48.072;7.800;2023-08-06T01:43:26;2.57;;;1.57;;
63555;SDS011;49700;48.072;7.800;2023-08-06T01:45:51;3.33;;;1.47;;
63555;SDS011;49700;48.072;7.800;2023-08-06T01:48:17;1.90;;;1.30;;
63555;SDS011;49700;48.072;7.800;2023-08-06T01:50:42;3.83;;;1.40;;
63555;SDS011;49700;48.072;7.800;2023-08-06T01:53:08;2.23;;;1.90;;
63555;SDS011;49700;48.072;7.800;2023-08-06T01:55:33;4.40;;;1.70;;
63555;SDS011;49700;48.072;7.800;2023-08-06T01:57:59;3.07;;;1.63;;
63555;SDS011;49700;48.072;7.800;2023-08-06T02:00:24;2.57;;;1.93;;
63555;SDS011;49700;48.072;7.800;2023-08-06T02:02:50;3.23;;;1.93;;
63555;SDS011;49700;48.072;7.800;2023-08-06T02:05:15;5.10;;;2.07;;
63555;SDS011;49700;48.072;7.800;2023-08-06T02:07:42;3.43;;;1.40;;
63555;SDS011;49700;48.072;7.800;2023-08-06T02:10:07;2.90;;;2.00;;
63555;SDS011;49700;48.072;7.800;2023-08-06T02:12:33;1.63;;;1.53;;
63555;SDS011;49700;48.072;7.800;2023-08-06T02:14:58;2.93;;;1.83;;
63555;SDS011;49700;48.072;7.800;2023-08-06T02:17:24;2.20;;;1.47;;
63555;SDS011;49700;48.072;7.800;2023-08-06T02:19:49;2.47;;;1.40;;
63555;SDS011;49700;48.072;7.800;2023-08-06T02:22:15;2.77;;;1.90;;
63555;SDS011;49700;48.072;7.800;2023-08-06T02:24:40;4.63;;;1.30;;
63555;SDS011;49700;48.072;7.800;2023-08-06T02:27:06;3.20;;;1.70;;
63555;SDS011;49700;48.072;7.800;2023-08-06T02:29:32;3.50;;;2.10;;
63555;SDS011;49700;48.072;7.800;2023-08-06T02:31:57;2.77;;;1.80;;
63555;SDS011;49700;48.072;7.800;2023-08-06T02:34:23;4.23;;;1.70;;
63555;SDS011;49700;48.072;7.800;2023-08-06T02:36:48;1.93;;;1.77;;
63555;SDS011;49700;48.072;7.800;2023-08-06T02:39:14;4.33;;;2.40;;
63555;SDS011;49700;48.072;7.800;2023-08-06T02:41:39;2.43;;;1.70;;
63555;SDS011;49700;48.072;7.800;2023-08-06T02:44:04;3.33;;;1.83;;
63555;SDS011;49700;48.072;7.800;2023-08-06T02:46:30;2.83;;;1.67;;
63555;SDS011;49700;48.072;7.800;2023-08-06T02:48:56;5.27;;;1.63;;
63555;SDS011;49700;48.072;7.800;2023-08-06T02:51:21;3.20;;;1.80;;
63555;SDS011;49700;48.072;7.800;2023-08-06T02:53:47;1.90;;;1.70;;
63555;SDS011;49700;48.072;7.800;2023-08-06T02:56:14;4.07;;;1.80;;
63555;SDS011;49700;48.072;7.800;2023-08-06T02:58:54;2.23;;;1.20;;
63555;SDS011;49700;48.072;7.800;2023-08-06T03:01:30;1.73;;;1.50;;
63555;SDS011;49700;48.072;7.800;2023-08-06T03:04:03;1.93;;;1.73;;
63555;SDS011;49700;48.072;7.800;2023-08-06T03:06:34;2.83;;;1.73;;
63555;SDS011;49700;48.072;7.800;2023-08-06T03:09:00;2.53;;;1.70;;
63555;SDS011;49700;48.072;7.800;2023-08-06T03:11:26;6.03;;;3.30;;
63555;SDS011;49700;48.072;7.800;2023-08-06T03:13:57;2.00;;;1.10;;
63555;SDS011;49700;48.072;7.800;2023-08-06T03:16:22;2.27;;;1.83;;
63555;SDS011;49700;48.072;7.800;2023-08-06T03:18:53;1.70;;;1.23;;
63555;SDS011;49700;48.072;7.800;2023-08-06T03:21:20;1.67;;;1.10;;
63555;SDS011;49700;48.072;7.800;2023-08-06T03:23:48;1.80;;;1.00;;
63555;SDS011;49700;48.072;7.800;2023-08-06T03:26:15;1.60;;;1.27;;
63555;SDS011;49700;48.072;7.800;2023-08-06T03:28:40;1.97;;;1.00;;
63555;SDS011;49700;48.072;7.800;2023-08-06T03:31:06;1.33;;;0.70;;
63555;SDS011;49700;48.072;7.800;2023-08-06T03:33:39;4.00;;;1.10;;
63555;SDS011;49700;48.072;7.800;2023-08-06T03:36:09;2.00;;;1.00;;
63555;SDS011;49700;48.072;7.800;2023-08-06T03:38:35;2.23;;;0.90;;
63555;SDS011;49700;48.072;7.800;2023-08-06T03:41:04;1.00;;;0.77;;
63555;SDS011;49700;48.072;7.800;2023-08-06T03:43:29;3.90;;;0.90;;
63555;SDS011;49700;48.072;7.800;2023-08-06T03:45:55;3.00;;;1.00;;
63555;SDS011;49700;48.072;7.800;2023-08-06T03:48:21;1.83;;;1.00;;
63555;SDS011;49700;48.072;7.800;2023-08-06T03:50:46;2.43;;;0.80;;
63555;SDS011;49700;48.072;7.800;2023-08-06T03:53:13;1.13;;;0.60;;
63555;SDS011;49700;48.072;7.800;2023-08-06T03:55:39;1.23;;;0.90;;
63555;SDS011;49700;48.072;7.800;2023-08-06T03:58:04;2.40;;;0.90;;
63555;SDS011;49700;48.072;7.800;2023-08-06T04:00:30;1.23;;;0.80;;
63555;SDS011;49700;48.072;7.800;2023-08-06T04:02:56;1.23;;;0.57;;
63555;SDS011;49700;48.072;7.800;2023-08-06T04:05:21;4.00;;;1.00;;
63555;SDS011;49700;48.072;7.800;2023-08-06T04:07:47;1.10;;;0.90;;
63555;SDS011;49700;48.072;7.800;2023-08-06T04:10:13;1.53;;;0.83;;
63555;SDS011;49700;48.072;7.800;2023-08-06T04:12:39;1.50;;;0.90;;
63555;SDS011;49700;48.072;7.800;2023-08-06T04:15:05;1.02;;;0.80;;
63555;SDS011;49700;48.072;7.800;2023-08-06T04:17:31;1.00;;;0.85;;
63555;SDS011;49700;48.072;7.800;2023-08-06T04:19:56;1.63;;;0.77;;
63555;SDS011;49700;48.072;7.800;2023-08-06T04:22:24;1.08;;;0.80;;
63555;SDS011;49700;48.072;7.800;2023-08-06T04:24:50;2.00;;;1.57;;
63555;SDS011;49700;48.072;7.800;2023-08-06T04:27:16;2.30;;;1.30;;
63555;SDS011;49700;48.072;7.800;2023-08-06T04:29:43;2.08;;;1.00;;
63555;SDS011;49700;48.072;7.800;2023-08-06T04:32:09;2.43;;;1.10;;
63555;SDS011;49700;48.072;7.800;2023-08-06T04:34:40;1.90;;;0.85;;
63555;SDS011;49700;48.072;7.800;2023-08-06T04:37:05;3.00;;;1.53;;
63555;SDS011;49700;48.072;7.800;2023-08-06T04:39:31;2.47;;;0.90;;
63555;SDS011;49700;48.072;7.800;2023-08-06T04:41:56;3.10;;;1.30;;
63555;SDS011;49700;48.072;7.800;2023-08-06T04:44:25;1.70;;;1.30;;
63555;SDS011;49700;48.072;7.800;2023-08-06T04:46:51;3.27;;;2.23;;
63555;SDS011;49700;48.072;7.800;2023-08-06T04:49:17;2.63;;;1.40;;
63555;SDS011;49700;48.072;7.800;2023-08-06T04:51:43;5.90;;;1.25;;
63555;SDS011;49700;48.072;7.800;2023-08-06T04:54:08;3.83;;;1.60;;
63555;SDS011;49700;48.072;7.800;2023-08-06T04:56:34;1.58;;;1.30;;
63555;SDS011;49700;48.072;7.800;2023-08-06T04:59:00;4.37;;;1.00;;
63555;SDS011;49700;48.072;7.800;2023-08-06T05:01:25;3.03;;;1.97;;
63555;SDS011;49700;48.072;7.800;2023-08-06T05:03:51;2.30;;;1.20;;
63555;SDS011;49700;48.072;7.800;2023-08-06T05:06:16;4.35;;;1.60;;
63555;SDS011;49700;48.072;7.800;2023-08-06T05:08:42;3.33;;;1.10;;
63555;SDS011;49700;48.072;7.800;2023-08-06T05:11:07;3.43;;;1.77;;
63555;SDS011;49700;48.072;7.800;2023-08-06T05:13:33;2.10;;;1.50;;
63555;SDS011;49700;48.072;7.800;2023-08-06T05:15:58;4.73;;;1.47;;
63555;SDS011;49700;48.072;7.800;2023-08-06T05:18:23;1.53;;;1.40;;
63555;SDS011;49700;48.072;7.800;2023-08-06T05:20:49;2.53;;;1.33;;
63555;SDS011;49700;48.072;7.800;2023-08-06T05:23:14;2.17;;;1.30;;
63555;SDS011;49700;48.072;7.800;2023-08-06T05:25:40;3.73;;;1.90;;
63555;SDS011;49700;48.072;7.800;2023-08-06T05:28:05;3.13;;;1.47;;
63555;SDS011;49700;48.072;7.800;2023-08-06T05:30:31;1.67;;;1.17;;
63555;SDS011;49700;48.072;7.800;2023-08-06T05:32:57;4.30;;;1.60;;
63555;SDS011;49700;48.072;7.800;2023-08-06T05:35:22;5.97;;;1.80;;
63555;SDS011;49700;48.072;7.800;2023-08-06T05:37:48;7.00;;;2.00;;
63555;SDS011;49700;48.072;7.800;2023-08-06T05:40:15;6.20;;;1.60;;
63555;SDS011;49700;48.072;7.800;2023-08-06T05:42:41;2.90;;;1.10;;
63555;SDS011;49700;48.072;7.800;2023-08-06T05:45:06;5.47;;;1.90;;
63555;SDS011;49700;48.072;7.800;2023-08-06T05:47:32;1.90;;;1.45;;
63555;SDS011;49700;48.072;7.800;2023-08-06T05:49:58;4.53;;;1.40;;
63555;SDS011;49700;48.072;7.800;2023-08-06T05:52:23;4.90;;;1.47;;
63555;SDS011;49700;48.072;7.800;2023-08-06T05:54:49;1.90;;;1.17;;
63555;SDS011;49700;48.072;7.800;2023-08-06T05:57:15;3.53;;;2.23;;
63555;SDS011;49700;48.072;7.800;2023-08-06T05:59:41;11.40;;;2.33;;
63555;SDS011;49700;48.072;7.800;2023-08-06T06:02:06;3.05;;;1.30;;
63555;SDS011;49700;48.072;7.800;2023-08-06T06:04:32;3.40;;;1.70;;
63555;SDS011;49700;48.072;7.800;2023-08-06T06:06:57;3.27;;;1.50;;
63555;SDS011;49700;48.072;7.800;2023-08-06T06:09:23;3.07;;;1.80;;
63555;SDS011;49700;48.072;7.800;2023-08-06T06:11:48;3.80;;;1.90;;
63555;SDS011;49700;48.072;7.800;2023-08-06T06:14:16;5.40;;;1.40;;
63555;SDS011;49700;48.072;7.800;2023-08-06T06:16:42;3.35;;;1.40;;
63555;SDS011;49700;48.072;7.800;2023-08-06T06:19:07;4.23;;;1.27;;
63555;SDS011;49700;48.072;7.800;2023-08-06T06:21:33;3.13;;;1.30;;
63555;SDS011;49700;48.072;7.800;2023-08-06T06:23:58;2.20;;;1.90;;
63555;SDS011;49700;48.072;7.800;2023-08-06T06:26:24;1.67;;;1.47;;
63555;SDS011;49700;48.072;7.800;2023-08-06T06:28:50;1.97;;;1.20;;
63555;SDS011;49700;48.072;7.800;2023-08-06T06:31:15;4.77;;;1.83;;
63555;SDS011;49700;48.072;7.800;2023-08-06T06:33:41;3.83;;;1.17;;
63555;SDS011;49700;48.072;7.800;2023-08-06T06:36:06;3.75;;;1.23;;
63555;SDS011;49700;48.072;7.800;2023-08-06T06:38:33;2.63;;;1.25;;
63555;SDS011;49700;48.072;7.800;2023-08-06T06:40:59;3.25;;;1.30;;
63555;SDS011;49700;48.072;7.800;2023-08-06T06:43:25;1.80;;;1.30;;
63555;SDS011;49700;48.072;7.800;2023-08-06T06:45:57;3.10;;;0.97;;
63555;SDS011;49700;48.072;7.800;2023-08-06T06:48:24;1.95;;;1.58;;
63555;SDS011;49700;48.072;7.800;2023-08-06T06:50:53;1.33;;;1.20;;
63555;SDS011;49700;48.072;7.800;2023-08-06T06:53:19;3.10;;;2.90;;
63555;SDS011;49700;48.072;7.800;2023-08-06T06:55:44;2.40;;;1.03;;
63555;SDS011;49700;48.072;7.800;2023-08-06T06:58:10;5.40;;;1.40;;
63555;SDS011;49700;48.072;7.800;2023-08-06T07:00:36;3.13;;;1.30;;
63555;SDS011;49700;48.072;7.800;2023-08-06T07:03:02;2.35;;;0.90;;
63555;SDS011;49700;48.072;7.800;2023-08-06T07:05:27;2.03;;;1.00;;
63555;SDS011;49700;48.072;7.800;2023-08-06T07:07:53;1.30;;;0.80;;
63555;SDS011;49700;48.072;7.800;2023-08-06T07:10:18;1.90;;;0.80;;
63555;SDS011;49700;48.072;7.800;2023-08-06T07:12:44;2.20;;;1.47;;
63555;SDS011;49700;48.072;7.800;2023-08-06T07:15:09;3.30;;;1.10;;
63555;SDS011;49700;48.072;7.800;2023-08-06T07:17:35;2.90;;;0.80;;
63555;SDS011;49700;48.072;7.800;2023-08-06T07:20:00;1.23;;;1.00;;
63555;SDS011;49700;48.072;7.800;2023-08-06T07:22:26;1.10;;;0.87;;
63555;SDS011;49700;48.072;7.800;2023-08-06T07:24:51;2.30;;;0.80;;
63555;SDS011;49700;48.072;7.800;2023-08-06T07:27:17;1.37;;;1.10;;
63555;SDS011;49700;48.072;7.800;2023-08-06T07:29:42;1.67;;;0.80;;
63555;SDS011;49700;48.072;7.800;2023-08-06T07:32:07;1.07;;;0.73;;
63555;SDS011;49700;48.072;7.800;2023-08-06T07:34:33;1.00;;;0.83;;
63555;SDS011;49700;48.072;7.800;2023-08-06T07:36:59;1.73;;;0.60;;
63555;SDS011;49700;48.072;7.800;2023-08-06T07:39:24;2.30;;;0.83;;
63555;SDS011;49700;48.072;7.800;2023-08-06T07:41:50;1.40;;;0.90;;
63555;SDS011;49700;48.072;7.800;2023-08-06T07:44:15;0.70;;;0.60;;
63555;SDS011;49700;48.072;7.800;2023-08-06T07:46:41;0.70;;;0.60;;
63555;SDS011;49700;48.072;7.800;2023-08-06T07:49:06;2.40;;;0.90;;
63555;SDS011;49700;48.072;7.800;2023-08-06T07:51:32;1.20;;;1.10;;
63555;SDS011;49700;48.072;7.800;2023-08-06T07:53:57;2.90;;;1.50;;
63555;SDS011;49700;48.072;7.800;2023-08-06T07:56:23;1.13;;;0.60;;
63555;SDS011;49700;48.072;7.800;2023-08-06T07:58:48;1.57;;;0.80;;
63555;SDS011;49700;48.072;7.800;2023-08-06T08:01:13;1.20;;;0.60;;
63555;SDS011;49700;48.072;7.800;2023-08-06T08:03:39;2.50;;;0.70;;
63555;SDS011;49700;48.072;7.800;2023-08-06T08:06:04;1.70;;;0.70;;
63555;SDS011;49700;48.072;7.800;2023-08-06T08:08:30;1.80;;;0.80;;
63555;SDS011;49700;48.072;7.800;2023-08-06T08:10:55;3.20;;;0.97;;
63555;SDS011;49700;48.072;7.800;2023-08-06T08:13:21;0.70;;;0.67;;
63555;SDS011;49700;48.072;7.800;2023-08-06T08:15:46;0.90;;;0.73;;
63555;SDS011;49700;48.072;7.800;2023-08-06T08:18:12;0.70;;;0.50;;
63555;SDS011;49700;48.072;7.800;2023-08-06T08:20:37;0.60;;;0.50;;
63555;SDS011;49700;48.072;7.800;2023-08-06T08:23:02;0.93;;;0.90;;
63555;SDS011;49700;48.072;7.800;2023-08-06T08:25:28;0.60;;;0.50;;
63555;SDS011;49700;48.072;7.800;2023-08-06T08:27:54;0.70;;;0.60;;
63555;SDS011;49700;48.072;7.800;2023-08-06T08:30:20;0.77;;;0.50;;
63555;SDS011;49700;48.072;7.800;2023-08-06T08:32:46;1.00;;;0.70;;
63555;SDS011;49700;48.072;7.800;2023-08-06T08:35:12;2.30;;;0.70;;
63555;SDS011;49700;48.072;7.800;2023-08-06T08:37:38;0.70;;;0.60;;
63555;SDS011;49700;48.072;7.800;2023-08-06T08:40:05;1.43;;;0.80;;
63555;SDS011;49700;48.072;7.800;2023-08-06T08:42:31;0.70;;;0.60;;
63555;SDS011;49700;48.072;7.800;2023-08-06T08:44:56;0.90;;;0.60;;
63555;SDS011;49700;48.072;7.800;2023-08-06T08:47:22;3.23;;;0.80;;
63555;SDS011;49700;48.072;7.800;2023-08-06T08:49:49;1.00;;;0.70;;
63555;SDS011;49700;48.072;7.800;2023-08-06T08:52:19;1.70;;;0.70;;
63555;SDS011;49700;48.072;7.800;2023-08-06T08:54:46;1.35;;;0.70;;
63555;SDS011;49700;48.072;7.800;2023-08-06T08:57:16;0.70;;;0.60;;
63555;SDS011;49700;48.072;7.800;2023-08-06T08:59:42;0.93;;;0.77;;
63555;SDS011;49700;48.072;7.800;2023-08-06T09:02:07;0.83;;;0.60;;
63555;SDS011;49700;48.072;7.800;2023-08-06T09:04:36;0.70;;;0.70;;
63555;SDS011;49700;48.072;7.800;2023-08-06T09:07:02;0.70;;;0.60;;
63555;SDS011;49700;48.072;7.800;2023-08-06T09:09:34;1.02;;;0.60;;
63555;SDS011;49700;48.072;7.800;2023-08-06T09:12:15;1.60;;;0.60;;
63555;SDS011;49700;48.072;7.800;2023-08-06T09:14:41;1.25;;;0.88;;
63555;SDS011;49700;48.072;7.800;2023-08-06T09:17:07;0.90;;;0.68;;
63555;SDS011;49700;48.072;7.800;2023-08-06T09:19:34;1.33;;;0.60;;
63555;SDS011;49700;48.072;7.800;2023-08-06T09:21:59;0.60;;;0.50;;
63555;SDS011;49700;48.072;7.800;2023-08-06T09:24:25;0.70;;;0.70;;
63555;SDS011;49700;48.072;7.800;2023-08-06T09:26:51;0.70;;;0.60;;
63555;SDS011;49700;48.072;7.800;2023-08-06T09:29:17;0.60;;;0.50;;
63555;SDS011;49700;48.072;7.800;2023-08-06T09:31:43;0.70;;;0.60;;
63555;SDS011;49700;48.072;7.800;2023-08-06T09:34:11;0.90;;;0.60;;
63555;SDS011;49700;48.072;7.800;2023-08-06T09:36:40;0.80;;;0.77;;
63555;SDS011;49700;48.072;7.800;2023-08-06T09:39:13;0.70;;;0.60;;
63555;SDS011;49700;48.072;7.800;2023-08-06T09:41:40;1.00;;;0.60;;
63555;SDS011;49700;48.072;7.800;2023-08-06T09:44:19;0.70;;;0.50;;
63555;SDS011;49700;48.072;7.800;2023-08-06T09:49:15;0.70;;;0.60;;
63555;SDS011;49700;48.072;7.800;2023-08-06T09:51:42;0.67;;;0.50;;
63555;SDS011;49700;48.072;7.800;2023-08-06T09:54:10;0.70;;;0.60;;
63555;SDS011;49700;48.072;7.800;2023-08-06T09:56:37;0.60;;;0.50;;
63555;SDS011;49700;48.072;7.800;2023-08-06T09:59:06;0.80;;;0.60;;
63555;SDS011;49700;48.072;7.800;2023-08-06T10:01:33;1.10;;;0.63;;
63555;SDS011;49700;48.072;7.800;2023-08-06T10:04:00;1.47;;;0.60;;
63555;SDS011;49700;48.072;7.800;2023-08-06T10:06:28;1.20;;;0.73;;
63555;SDS011;49700;48.072;7.800;2023-08-06T10:08:53;1.30;;;0.60;;
63555;SDS011;49700;48.072;7.800;2023-08-06T10:11:19;1.07;;;0.50;;
63555;SDS011;49700;48.072;7.800;2023-08-06T10:13:49;1.40;;;0.70;;
63555;SDS011;49700;48.072;7.800;2023-08-06T10:16:18;0.80;;;0.57;;
63555;SDS011;49700;48.072;7.800;2023-08-06T10:18:48;0.70;;;0.60;;
63555;SDS011;49700;48.072;7.800;2023-08-06T10:21:15;0.80;;;0.60;;
63555;SDS011;49700;48.072;7.800;2023-08-06T10:23:41;1.10;;;0.80;;
63555;SDS011;49700;48.072;7.800;2023-08-06T10:26:07;0.80;;;0.60;;
63555;SDS011;49700;48.072;7.800;2023-08-06T10:28:39;0.70;;;0.60;;
63555;SDS011;49700;48.072;7.800;2023-08-06T10:31:05;0.82;;;0.60;;
63555;SDS011;49700;48.072;7.800;2023-08-06T10:33:44;0.70;;;0.60;;
63555;SDS011;49700;48.072;7.800;2023-08-06T10:36:10;0.83;;;0.67;;
63555;SDS011;49700;48.072;7.800;2023-08-06T10:38:47;1.40;;;0.85;;
63555;SDS011;49700;48.072;7.800;2023-08-06T10:41:32;0.68;;;0.60;;
63555;SDS011;49700;48.072;7.800;2023-08-06T10:44:07;1.85;;;0.82;;
63555;SDS011;49700;48.072;7.800;2023-08-06T10:46:35;1.98;;;0.80;;
63555;SDS011;49700;48.072;7.800;2023-08-06T10:49:03;0.60;;;0.60;;
63555;SDS011;49700;48.072;7.800;2023-08-06T10:51:29;0.93;;;0.80;;
63555;SDS011;49700;48.072;7.800;2023-08-06T10:53:55;1.00;;;0.90;;
63555;SDS011;49700;48.072;7.800;2023-08-06T10:56:21;0.90;;;0.70;;
63555;SDS011;49700;48.072;7.800;2023-08-06T10:58:53;0.60;;;0.53;;
63555;SDS011;49700;48.072;7.800;2023-08-06T11:01:22;0.70;;;0.53;;
63555;SDS011;49700;48.072;7.800;2023-08-06T11:03:48;0.70;;;0.50;;
63555;SDS011;49700;48.072;7.800;2023-08-06T11:06:18;0.90;;;0.70;;
63555;SDS011;49700;48.072;7.800;2023-08-06T11:08:51;0.80;;;0.50;;
63555;SDS011;49700;48.072;7.800;2023-08-06T11:11:18;0.80;;;0.60;;
63555;SDS011;49700;48.072;7.800;2023-08-06T11:13:45;1.73;;;0.70;;
63555;SDS011;49700;48.072;7.800;2023-08-06T11:16:12;1.63;;;0.50;;
63555;SDS011;49700;48.072;7.800;2023-08-06T11:18:40;1.00;;;0.53;;
63555;SDS011;49700;48.072;7.800;2023-08-06T11:21:07;0.80;;;0.60;;
63555;SDS011;49700;48.072;7.800;2023-08-06T11:23:33;1.80;;;0.60;;
63555;SDS011;49700;48.072;7.800;2023-08-06T11:25:59;0.80;;;0.50;;
63555;SDS011;49700;48.072;7.800;2023-08-06T11:28:24;0.60;;;0.50;;
63555;SDS011;49700;48.072;7.800;2023-08-06T11:30:53;0.60;;;0.50;;
63555;SDS011;49700;48.072;7.800;2023-08-06T11:33:21;0.67;;;0.50;;
63555;SDS011;49700;48.072;7.800;2023-08-06T11:35:50;0.60;;;0.50;;
63555;SDS011;49700;48.072;7.800;2023-08-06T11:38:16;0.70;;;0.60;;
63555;SDS011;49700;48.072;7.800;2023-08-06T11:40:43;0.70;;;0.60;;
63555;SDS011;49700;48.072;7.800;2023-08-06T11:43:10;0.70;;;0.50;;
63555;SDS011;49700;48.072;7.800;2023-08-06T11:45:36;0.60;;;0.50;;
63555;SDS011;49700;48.072;7.800;2023-08-06T11:48:01;0.80;;;0.60;;
63555;SDS011;49700;48.072;7.800;2023-08-06T11:50:28;0.70;;;0.60;;
63555;SDS011;49700;48.072;7.800;2023-08-06T11:52:57;0.70;;;0.60;;
63555;SDS011;49700;48.072;7.800;2023-08-06T11:55:25;1.13;;;0.90;;
63555;SDS011;49700;48.072;7.800;2023-08-06T11:57:51;1.57;;;1.20;;
63555;SDS011;49700;48.072;7.800;2023-08-06T12:00:17;2.40;;;1.47;;
63555;SDS011;49700;48.072;7.800;2023-08-06T12:02:45;1.00;;;0.90;;
63555;SDS011;49700;48.072;7.800;2023-08-06T12:07:45;1.00;;;0.60;;
63555;SDS011;49700;48.072;7.800;2023-08-06T12:10:13;0.70;;;0.60;;
63555;SDS011;49700;48.072;7.800;2023-08-06T12:12:39;0.70;;;0.60;;
63555;SDS011;49700;48.072;7.800;2023-08-06T12:15:05;0.90;;;0.60;;
63555;SDS011;49700;48.072;7.800;2023-08-06T12:17:32;2.03;;;0.77;;
63555;SDS011;49700;48.072;7.800;2023-08-06T12:19:58;0.80;;;0.60;;
63555;SDS011;49700;48.072;7.800;2023-08-06T12:22:23;0.80;;;0.60;;
63555;SDS011;49700;48.072;7.800;2023-08-06T12:24:49;1.60;;;1.43;;
63555;SDS011;49700;48.072;7.800;2023-08-06T12:27:14;0.70;;;0.60;;
63555;SDS011;49700;48.072;7.800;2023-08-06T12:29:42;0.70;;;0.60;;
63555;SDS011;49700;48.072;7.800;2023-08-06T12:32:11;1.10;;;0.90;;
63555;SDS011;49700;48.072;7.800;2023-08-06T12:34:38;0.90;;;0.60;;
63555;SDS011;49700;48.072;7.800;2023-08-06T12:37:04;1.00;;;0.70;;
63555;SDS011;49700;48.072;7.800;2023-08-06T12:39:30;1.30;;;0.80;;
63555;SDS011;49700;48.072;7.800;2023-08-06T12:41:56;1.80;;;0.70;;
63555;SDS011;49700;48.072;7.800;2023-08-06T12:44:23;0.70;;;0.60;;
63555;SDS011;49700;48.072;7.800;2023-08-06T12:46:49;0.83;;;0.70;;
63555;SDS011;49700;48.072;7.800;2023-08-06T12:49:16;0.93;;;0.60;;
63555;SDS011;49700;48.072;7.800;2023-08-06T12:51:42;0.70;;;0.60;;
63555;SDS011;49700;48.072;7.800;2023-08-06T12:54:08;1.13;;;0.60;;
63555;SDS011;49700;48.072;7.800;2023-08-06T12:56:34;0.90;;;0.70;;
63555;SDS011;49700;48.072;7.800;2023-08-06T12:58:59;1.33;;;0.80;;
63555;SDS011;49700;48.072;7.800;2023-08-06T13:01:25;3.60;;;0.70;;
63555;SDS011;49700;48.072;7.800;2023-08-06T13:03:50;0.90;;;0.60;;
63555;SDS011;49700;48.072;7.800;2023-08-06T13:06:15;0.70;;;0.70;;
63555;SDS011;49700;48.072;7.800;2023-08-06T13:08:41;0.70;;;0.70;;
63555;SDS011;49700;48.072;7.800;2023-08-06T13:11:06;0.90;;;0.60;;
63555;SDS011;49700;48.072;7.800;2023-08-06T13:13:31;0.70;;;0.70;;
63555;SDS011;49700;48.072;7.800;2023-08-06T13:15:57;1.67;;;0.80;;
63555;SDS011;49700;48.072;7.800;2023-08-06T13:18:22;0.70;;;0.70;;
63555;SDS011;49700;48.072;7.800;2023-08-06T13:20:48;0.80;;;0.73;;
63555;SDS011;49700;48.072;7.800;2023-08-06T13:23:14;1.20;;;0.83;;
63555;SDS011;49700;48.072;7.800;2023-08-06T13:25:42;1.20;;;0.93;;
63555;SDS011;49700;48.072;7.800;2023-08-06T13:28:07;0.97;;;0.70;;
63555;SDS011;49700;48.072;7.800;2023-08-06T13:30:33;0.70;;;0.60;;
63555;SDS011;49700;48.072;7.800;2023-08-06T13:33:01;1.17;;;0.90;;
63555;SDS011;49700;48.072;7.800;2023-08-06T13:35:26;1.93;;;0.90;;
63555;SDS011;49700;48.072;7.800;2023-08-06T13:37:52;4.20;;;1.67;;
63555;SDS011;49700;48.072;7.800;2023-08-06T13:40:18;0.80;;;0.70;;
63555;SDS011;49700;48.072;7.800;2023-08-06T13:42:43;2.60;;;1.10;;
63555;SDS011;49700;48.072;7.800;2023-08-06T13:45:09;0.80;;;0.73;;
63555;SDS011;49700;48.072;7.800;2023-08-06T13:47:35;1.43;;;0.90;;
63555;SDS011;49700;48.072;7.800;2023-08-06T13:50:00;1.73;;;0.80;;
63555;SDS011;49700;48.072;7.800;2023-08-06T13:52:27;1.57;;;1.47;;
63555;SDS011;49700;48.072;7.800;2023-08-06T13:54:52;0.90;;;0.70;;
63555;SDS011;49700;48.072;7.800;2023-08-06T13:57:18;1.17;;;0.90;;
63555;SDS011;49700;48.072;7.800;2023-08-06T13:59:43;1.20;;;0.70;;
63555;SDS011;49700;48.072;7.800;2023-08-06T14:02:09;1.07;;;0.73;;
63555;SDS011;49700;48.072;7.800;2023-08-06T14:04:35;0.87;;;0.63;;
63555;SDS011;49700;48.072;7.800;2023-08-06T14:07:02;1.30;;;1.00;;
63555;SDS011;49700;48.072;7.800;2023-08-06T14:09:28;1.10;;;1.00;;
63555;SDS011;49700;48.072;7.800;2023-08-06T14:11:54;2.80;;;0.90;;
63555;SDS011;49700;48.072;7.800;2023-08-06T14:14:19;1.70;;;0.73;;
63555;SDS011;49700;48.072;7.800;2023-08-06T14:16:51;1.10;;;0.90;;
63555;SDS011;49700;48.072;7.800;2023-08-06T14:19:17;1.63;;;1.00;;
63555;SDS011;49700;48.072;7.800;2023-08-06T14:21:42;0.93;;;0.73;;
63555;SDS011;49700;48.072;7.800;2023-08-06T14:24:07;1.03;;;0.90;;
63555;SDS011;49700;48.072;7.800;2023-08-06T14:26:33;0.80;;;0.80;;
63555;SDS011;49700;48.072;7.800;2023-08-06T14:29:00;1.70;;;1.00;;
63555;SDS011;49700;48.072;7.800;2023-08-06T14:31:26;1.60;;;1.03;;
63555;SDS011;49700;48.072;7.800;2023-08-06T14:33:51;0.93;;;0.80;;
63555;SDS011;49700;48.072;7.800;2023-08-06T14:36:17;0.90;;;0.80;;
63555;SDS011;49700;48.072;7.800;2023-08-06T14:38:42;0.90;;;0.83;;
63555;SDS011;49700;48.072;7.800;2023-08-06T14:41:07;1.73;;;0.80;;
63555;SDS011;49700;48.072;7.800;2023-08-06T14:43:33;1.00;;;0.90;;
63555;SDS011;49700;48.072;7.800;2023-08-06T14:45:58;1.37;;;0.97;;
63555;SDS011;49700;48.072;7.800;2023-08-06T14:48:24;2.40;;;0.90;;
63555;SDS011;49700;48.072;7.800;2023-08-06T14:50:49;4.20;;;1.20;;
63555;SDS011;49700;48.072;7.800;2023-08-06T14:53:15;1.33;;;0.93;;
63555;SDS011;49700;48.072;7.800;2023-08-06T14:55:40;1.10;;;0.93;;